Time;durP1;ratioP1;P1;durP2;ratioP2;P2;SDS_P1;SDS_P2;PMS_P1;PMS_P2;Temp;Humidity;BMP_temperature;BMP_pressure;BME280_temperature;BME280_humidity;BME280_pressure;Samples;Min_cycle;Max_cycle;Signal;HPM_P1;HPM_P2
2021/11/26 00:00:54;;;;;;;;;7.00;4.00;;;;;7.69;65.74;100767.91;5026123;28;45460;-69
2021/11/26 00:03:20;;;;;;;;;12.00;4.00;;;;;7.68;65.39;100763.63;5027540;28;45529;-68
2021/11/26 00:05:45;;;;;;;;;5.33;3.00;;;;;7.64;65.85;100762.13;5021825;28;45750;-70
2021/11/26 00:08:11;;;;;;;;;6.33;3.33;;;;;7.58;66.15;100755.47;5018185;28;45563;-68
2021/11/26 00:10:36;;;;;;;;;6.00;3.67;;;;;7.56;65.59;100762.59;5019660;28;45497;-69
2021/11/26 00:13:04;;;;;;;;;6.67;4.00;;;;;7.55;66.30;100754.81;5017534;28;45270;-69
2021/11/26 00:17:57;;;;;;;;;8.00;7.67;;;;;7.53;65.52;100757.53;5018060;28;45535;-68
2021/11/26 00:20:23;;;;;;;;;7.33;4.67;;;;;7.50;66.02;100756.88;5017920;28;45452;-69
2021/11/26 00:22:49;;;;;;;;;12.00;7.00;;;;;7.50;66.29;100755.13;5033329;28;45445;-69
2021/11/26 00:25:14;;;;;;;;;9.67;8.67;;;;;7.50;66.49;100751.66;5018747;28;46956;-69
2021/11/26 00:27:40;;;;;;;;;7.33;5.67;;;;;7.52;66.10;100747.19;5037229;28;45304;-72
2021/11/26 00:30:07;;;;;;;;;9.00;4.00;;;;;7.50;66.04;100742.06;5038386;28;45399;-70
2021/11/26 00:32:32;;;;;;;;;3.00;3.00;;;;;7.52;65.65;100744.56;5039633;28;45325;-70
2021/11/26 00:34:58;;;;;;;;;14.00;4.33;;;;;7.51;65.82;100750.72;5036848;28;45484;-71
2021/11/26 00:37:23;;;;;;;;;4.00;4.00;;;;;7.51;66.21;100753.34;5037093;28;45474;-67
2021/11/26 00:39:49;;;;;;;;;12.33;7.00;;;;;7.52;65.60;100741.97;5036262;28;45391;-69
2021/11/26 00:42:16;;;;;;;;;4.00;3.00;;;;;7.51;66.03;100741.13;5037067;28;45444;-69
2021/11/26 00:44:41;;;;;;;;;6.00;4.67;;;;;7.51;65.19;100737.66;5024796;28;47255;-70
2021/11/26 00:47:07;;;;;;;;;7.00;6.00;;;;;7.50;65.46;100746.44;5036896;28;45338;-69
2021/11/26 00:49:32;;;;;;;;;13.00;6.00;;;;;7.49;65.29;100734.31;5037145;28;45457;-71
2021/11/26 00:51:58;;;;;;;;;7.00;4.33;;;;;7.50;65.65;100738.59;5041433;28;45296;-68
2021/11/26 00:54:23;;;;;;;;;6.33;4.00;;;;;7.51;65.52;100729.81;5043369;28;45216;-69
2021/11/26 00:56:49;;;;;;;;;3.67;3.67;;;;;7.50;65.65;100729.00;5038713;28;45478;-69
2021/11/26 00:59:14;;;;;;;;;9.00;5.33;;;;;7.52;65.61;100731.50;5036669;28;45371;-68
2021/11/26 01:01:39;;;;;;;;;7.00;7.00;;;;;7.53;65.18;100730.56;5038430;28;45483;-68
2021/11/26 01:04:05;;;;;;;;;8.33;3.33;;;;;7.56;65.49;100735.59;5036393;28;47062;-68
2021/11/26 01:06:32;;;;;;;;;8.33;6.00;;;;;7.56;65.45;100730.38;5037061;28;45218;-69
2021/11/26 01:08:57;;;;;;;;;6.00;4.00;;;;;7.58;65.00;100712.84;5036665;28;45285;-68
2021/11/26 01:11:23;;;;;;;;;4.67;4.00;;;;;7.60;65.22;100716.16;5019655;28;45424;-69
2021/11/26 01:13:49;;;;;;;;;8.33;4.00;;;;;7.63;65.00;100726.47;5038653;28;46942;-69
2021/11/26 01:16:14;;;;;;;;;6.67;3.00;;;;;7.63;64.69;100721.22;5036523;28;45388;-69
2021/11/26 01:18:40;;;;;;;;;14.00;6.33;;;;;7.63;65.01;100709.91;5037372;28;45552;-68
2021/11/26 01:21:07;;;;;;;;;10.00;6.00;;;;;7.66;65.07;100726.25;5036382;28;45456;-70
2021/11/26 01:23:33;;;;;;;;;8.00;4.00;;;;;7.67;64.38;100717.47;5035853;28;46231;-68
2021/11/26 01:25:58;;;;;;;;;8.00;6.00;;;;;7.67;64.63;100712.25;5036361;28;45500;-69
2021/11/26 01:28:24;;;;;;;;;8.33;5.33;;;;;7.67;64.34;100716.66;5040746;28;45195;-69
2021/11/26 01:30:53;;;;;;;;;3.67;3.67;;;;;7.67;64.69;100711.44;5036238;28;45389;-71
2021/11/26 01:33:20;;;;;;;;;8.33;3.33;;;;;7.66;64.59;100705.34;5036632;28;46922;-69
2021/11/26 01:35:49;;;;;;;;;6.00;2.00;;;;;7.68;64.58;100703.47;5039223;28;45485;-69
2021/11/26 01:38:15;;;;;;;;;3.00;1.00;;;;;7.70;64.83;100704.22;5038241;28;45388;-69
2021/11/26 01:40:42;;;;;;;;;8.00;4.00;;;;;7.73;64.83;100700.56;5037319;28;45259;-70
2021/11/26 01:43:11;;;;;;;;;10.00;3.67;;;;;7.76;64.26;100703.00;5035560;28;45433;-70
2021/11/26 01:45:42;;;;;;;;;8.00;3.33;;;;;7.80;64.28;100691.41;5045168;28;45466;-70
2021/11/26 01:48:08;;;;;;;;;4.67;3.00;;;;;7.81;64.06;100693.09;5027840;28;45398;-69
2021/11/26 01:50:33;;;;;;;;;6.00;4.00;;;;;7.82;64.64;100691.31;5039787;28;45539;-69
2021/11/26 01:52:59;;;;;;;;;7.33;7.00;;;;;7.83;63.95;100695.59;5036172;28;45325;-69
2021/11/26 01:55:24;;;;;;;;;6.00;6.00;;;;;7.84;64.41;100686.84;5036053;28;45388;-69
2021/11/26 01:57:50;;;;;;;;;7.67;6.00;;;;;7.84;63.88;100687.66;5023484;28;45631;-71
2021/11/26 02:00:23;;;;;;;;;8.33;4.00;;;;;7.83;63.81;100690.38;5036395;28;45497;-69
2021/11/26 02:02:49;;;;;;;;;5.33;3.67;;;;;7.83;63.97;100674.69;5035845;28;46393;-68
2021/11/26 02:05:14;;;;;;;;;8.00;5.33;;;;;7.82;64.01;100668.59;5036458;28;45373;-70
2021/11/26 02:07:39;;;;;;;;;4.00;4.00;;;;;7.84;63.70;100665.91;5021102;28;45401;-70
2021/11/26 02:10:06;;;;;;;;;7.00;4.67;;;;;7.81;64.24;100656.47;5037638;28;45551;-69
2021/11/26 02:12:31;;;;;;;;;2.67;2.67;;;;;7.82;64.20;100652.06;5034320;28;47103;-69
2021/11/26 02:14:58;;;;;;;;;9.67;4.00;;;;;7.82;63.90;100647.69;5035274;28;45396;-69
2021/11/26 02:17:24;;;;;;;;;4.00;3.33;;;;;7.83;64.48;100643.31;5036606;28;45302;-69
2021/11/26 02:19:54;;;;;;;;;6.67;6.33;;;;;7.81;64.14;100639.94;5035979;28;45358;-70
2021/11/26 02:22:20;;;;;;;;;10.33;8.00;;;;;7.81;63.88;100639.94;5034820;28;46575;-69
2021/11/26 02:24:45;;;;;;;;;9.00;6.00;;;;;7.80;63.75;100633.88;5023161;28;45381;-70
2021/11/26 02:27:15;;;;;;;;;9.67;4.00;;;;;7.79;64.03;100628.75;5035494;28;45391;-69
2021/11/26 02:29:40;;;;;;;;;9.00;6.00;;;;;7.80;63.46;100627.78;5037974;28;45477;-70
2021/11/26 02:32:06;;;;;;;;;3.00;3.00;;;;;7.80;63.35;100625.19;5034455;28;47109;-69
2021/11/26 02:34:31;;;;;;;;;7.33;6.33;;;;;7.76;64.03;100620.16;5035437;28;45371;-69
2021/11/26 02:36:56;;;;;;;;;6.00;6.00;;;;;7.78;63.87;100621.84;5034728;28;45311;-69
2021/11/26 02:39:22;;;;;;;;;11.33;6.67;;;;;7.75;63.96;100615.03;5035358;28;45485;-70
2021/11/26 02:41:49;;;;;;;;;10.33;8.00;;;;;7.74;63.56;100608.94;5021358;28;46099;-69
2021/11/26 02:44:15;;;;;;;;;8.33;6.00;;;;;7.76;64.07;100611.47;5035217;28;45478;-70
2021/11/26 02:46:40;;;;;;;;;6.67;4.67;;;;;7.79;64.33;100611.28;5035774;28;45427;-71
2021/11/26 02:49:06;;;;;;;;;6.00;6.00;;;;;7.80;64.01;100617.31;5035398;28;45405;-70
2021/11/26 02:51:32;;;;;;;;;12.00;6.00;;;;;7.78;63.82;100601.75;5038239;28;46958;-69
2021/11/26 02:53:58;;;;;;;;;6.33;6.33;;;;;7.78;63.70;100604.34;5038693;28;45458;-70
2021/11/26 02:56:23;;;;;;;;;6.33;3.67;;;;;7.75;63.24;100601.94;5042543;28;45463;-69
2021/11/26 02:58:48;;;;;;;;;7.33;6.00;;;;;7.72;63.71;100595.16;5038627;28;45958;-69
2021/11/26 03:01:14;;;;;;;;;4.00;4.00;;;;;7.69;63.73;100600.59;5037205;28;46046;-69
2021/11/26 03:03:39;;;;;;;;;9.33;7.00;;;;;7.68;63.40;100591.06;5038870;28;45422;-69
2021/11/26 03:06:07;;;;;;;;;6.33;6.33;;;;;7.69;64.18;100587.50;5038844;28;45532;-71
2021/11/26 03:08:34;;;;;;;;;7.00;6.00;;;;;7.65;63.86;100583.38;5038695;28;45584;-70
2021/11/26 03:11:02;;;;;;;;;7.67;7.00;;;;;7.63;63.83;100582.66;5038612;28;46301;-69
2021/11/26 03:13:28;;;;;;;;;7.00;7.00;;;;;7.62;63.88;100577.53;5022655;28;45381;-69
2021/11/26 03:15:54;;;;;;;;;6.67;6.00;;;;;7.59;64.06;100574.19;5037691;28;45314;-70
2021/11/26 03:18:21;;;;;;;;;7.00;6.00;;;;;7.58;63.50;100572.50;5038740;28;45413;-69
2021/11/26 03:20:49;;;;;;;;;9.33;6.67;;;;;7.59;63.75;100568.13;5037895;28;46097;-68
2021/11/26 03:23:15;;;;;;;;;7.00;6.00;;;;;7.59;63.83;100558.50;5021629;28;45928;-69
2021/11/26 03:25:41;;;;;;;;;10.33;8.33;;;;;7.58;63.86;100569.06;5039954;28;45468;-69
2021/11/26 03:28:11;;;;;;;;;8.00;6.33;;;;;7.58;63.58;100555.97;5037611;28;45394;-69
2021/11/26 03:30:37;;;;;;;;;12.00;6.67;;;;;7.56;64.10;100552.63;5039525;28;46175;-68
2021/11/26 03:33:03;;;;;;;;;7.67;6.33;;;;;7.54;63.51;100554.50;5037618;28;45510;-69
2021/11/26 03:35:29;;;;;;;;;8.00;6.00;;;;;7.53;64.15;100547.59;5037962;28;45506;-69
2021/11/26 03:37:55;;;;;;;;;8.00;7.00;;;;;7.50;64.03;100540.78;5038374;28;45599;-69
2021/11/26 03:40:22;;;;;;;;;10.67;7.00;;;;;7.48;64.39;100534.81;5037628;28;47108;-69
2021/11/26 03:42:48;;;;;;;;;6.67;6.67;;;;;7.50;64.37;100526.88;5040075;28;45491;-68
2021/11/26 03:45:15;;;;;;;;;27.25;20.75;;;;;7.49;64.61;100538.28;5039177;28;45302;-69
2021/11/26 03:47:40;;;;;;;;;26.75;24.25;;;;;7.47;64.58;100530.50;5038101;28;45452;-69
2021/11/26 03:50:07;;;;;;;;;11.00;7.33;;;;;7.46;64.30;100518.41;5038893;28;47204;-68
2021/11/26 03:52:33;;;;;;;;;8.67;2.67;;;;;7.47;64.17;100511.38;5040787;28;45697;-69
2021/11/26 03:54:59;;;;;;;;;8.33;7.00;;;;;7.42;64.09;100499.47;5022611;28;45397;-71
2021/11/26 03:57:25;;;;;;;;;8.00;7.00;;;;;7.44;64.15;100502.78;5021659;28;45390;-69
2021/11/26 03:59:50;;;;;;;;;13.00;7.00;;;;;7.41;64.55;100510.84;5040737;28;45549;-69
2021/11/26 04:02:15;;;;;;;;;10.00;8.00;;;;;7.39;64.08;100502.25;5041743;28;45334;-68
2021/11/26 04:04:41;;;;;;;;;13.33;6.00;;;;;7.36;64.49;100499.03;5044467;28;46560;-69
2021/11/26 04:07:06;;;;;;;;;9.33;7.00;;;;;7.33;64.91;100499.19;5020946;28;45454;-69
2021/11/26 04:09:32;;;;;;;;;10.33;6.67;;;;;7.31;64.31;100501.09;5038528;28;45407;-68
2021/11/26 04:11:58;;;;;;;;;8.00;7.00;;;;;7.29;64.45;100493.34;5039968;28;45422;-69
2021/11/26 04:14:25;;;;;;;;;10.00;7.67;;;;;7.26;64.56;100488.31;5039878;28;45374;-69
2021/11/26 04:16:51;;;;;;;;;7.00;7.00;;;;;7.27;64.71;100482.16;5038946;28;45564;-68
2021/11/26 04:19:16;;;;;;;;;7.67;6.67;;;;;7.25;64.55;100479.66;5037429;28;47465;-68
2021/11/26 04:21:41;;;;;;;;;8.00;4.33;;;;;7.21;64.96;100472.09;5047665;28;45364;-68
2021/11/26 04:24:07;;;;;;;;;7.33;6.33;;;;;7.21;64.59;100475.56;5043685;28;45547;-68
2021/11/26 04:26:32;;;;;;;;;4.75;2.00;;;;;7.20;64.90;100467.78;5039431;28;45730;-70
2021/11/26 04:28:59;;;;;;;;;7.50;6.50;;;;;7.16;64.70;100466.31;5037869;28;46098;-68
2021/11/26 04:31:25;;;;;;;;;10.50;8.00;;;;;7.10;65.23;100468.38;5037376;28;45319;-68
2021/11/26 04:33:53;;;;;;;;;7.75;7.00;;;;;7.12;65.64;100470.06;5032680;28;45500;-69
2021/11/26 04:36:18;;;;;;;;;10.00;10.00;;;;;7.12;65.41;100470.91;5037567;28;45312;-70
2021/11/26 04:38:43;;;;;;;;;10.50;6.25;;;;;7.10;66.14;100462.34;5037206;28;46047;-70
2021/11/26 04:41:09;;;;;;;;;10.00;7.25;;;;;7.09;65.54;100455.44;5036744;28;45476;-69
2021/11/26 04:43:34;;;;;;;;;16.00;9.25;;;;;7.09;66.05;100455.44;5020509;28;45351;-69
2021/11/26 04:45:59;;;;;;;;;14.00;8.50;;;;;7.13;65.30;100456.91;5024163;28;45516;-70
2021/11/26 04:48:25;;;;;;;;;6.75;6.50;;;;;7.13;65.63;100446.47;5036933;28;45509;-69
2021/11/26 04:50:51;;;;;;;;;11.75;10.00;;;;;7.14;65.49;100442.91;5037742;28;45385;-71
2021/11/26 04:53:18;;;;;;;;;14.25;8.00;;;;;7.13;65.60;100443.03;5038335;28;45350;-68
2021/11/26 04:55:44;;;;;;;;;10.50;8.25;;;;;7.12;65.85;100443.94;5040448;28;45342;-69
2021/11/26 04:58:10;;;;;;;;;8.00;7.00;;;;;7.09;65.49;100431.94;5038089;28;46903;-69
2021/11/26 05:00:36;;;;;;;;;8.50;7.25;;;;;7.07;65.62;100429.41;5037713;28;45562;-68
2021/11/26 05:03:02;;;;;;;;;8.75;7.25;;;;;7.09;65.39;100429.31;5036858;28;45468;-70
2021/11/26 05:05:27;;;;;;;;;11.75;8.50;;;;;7.14;65.21;100426.41;5038021;28;45426;-68
2021/11/26 05:07:53;;;;;;;;;9.75;8.25;;;;;7.16;65.51;100432.38;5036816;28;46409;-70
2021/11/26 05:10:20;;;;;;;;;11.00;9.25;;;;;7.13;64.97;100420.34;5036640;28;45383;-69
2021/11/26 05:12:55;;;;;;;;;8.00;8.00;;;;;7.15;65.03;100421.09;5037838;28;45275;-69
2021/11/26 05:15:25;;;;;;;;;10.25;9.25;;;;;7.15;65.14;100417.63;5039736;28;45385;-69
2021/11/26 05:17:57;;;;;;;;;13.25;8.75;;;;;7.14;65.61;100418.59;5039414;28;45471;-69
2021/11/26 05:20:23;;;;;;;;;11.75;8.75;;;;;7.10;66.01;100410.09;5039335;28;45584;-69
2021/11/26 05:22:49;;;;;;;;;16.50;10.50;;;;;7.08;65.88;100411.97;5036917;28;47259;-69
2021/11/26 05:25:16;;;;;;;;;11.75;9.75;;;;;7.06;65.88;100404.22;5020486;28;45383;-68
2021/11/26 05:27:42;;;;;;;;;12.00;9.75;;;;;7.05;64.89;100407.78;5024342;28;46160;-69
2021/11/26 05:30:08;;;;;;;;;8.00;8.00;;;;;7.05;66.00;100402.53;5036004;28;45333;-68
2021/11/26 05:32:35;;;;;;;;;9.50;8.00;;;;;7.04;65.91;100390.41;5036872;28;45490;-69
2021/11/26 05:35:00;;;;;;;;;22.00;11.75;;;;;7.04;66.08;100384.38;5038718;28;45660;-69
2021/11/26 05:37:26;;;;;;;;;15.50;12.00;;;;;7.02;66.01;100376.63;5036777;28;46347;-69
2021/11/26 05:39:51;;;;;;;;;8.00;8.00;;;;;7.04;65.70;100373.91;5035671;28;45284;-70
2021/11/26 05:42:16;;;;;;;;;15.25;14.00;;;;;7.02;65.58;100363.59;5038880;28;45562;-69
2021/11/26 05:44:42;;;;;;;;;11.75;11.00;;;;;7.02;65.15;100362.72;5038330;28;45288;-68
2021/11/26 05:47:07;;;;;;;;;11.25;8.00;;;;;6.98;65.62;100361.25;5037671;28;45518;-70
2021/11/26 05:49:32;;;;;;;;;18.00;11.00;;;;;6.95;65.39;100349.22;5037336;28;45370;-69
2021/11/26 05:51:58;;;;;;;;;16.00;11.00;;;;;6.93;65.70;100346.72;5035754;28;45490;-69
2021/11/26 05:54:24;;;;;;;;;15.25;12.75;;;;;6.94;64.95;100342.34;5035823;28;45446;-69
2021/11/26 05:56:49;;;;;;;;;17.00;12.00;;;;;6.92;65.82;100339.00;5036091;28;45310;-69
2021/11/26 05:59:15;;;;;;;;;16.25;11.75;;;;;6.92;65.96;100339.81;5035864;28;45681;-70
2021/11/26 06:01:40;;;;;;;;;12.00;11.50;;;;;6.92;65.80;100339.81;5035333;28;45449;-70
2021/11/26 06:04:06;;;;;;;;;16.00;12.50;;;;;6.93;65.78;100343.28;5034769;28;45376;-69
2021/11/26 06:06:31;;;;;;;;;17.25;11.00;;;;;6.90;66.41;100339.09;5037597;28;45551;-69
2021/11/26 06:08:56;;;;;;;;;12.00;11.00;;;;;6.94;66.10;100337.09;5035419;28;45572;-69
2021/11/26 06:11:22;;;;;;;;;17.50;12.75;;;;;6.96;65.55;100326.59;5036209;28;45376;-70
2021/11/26 06:13:47;;;;;;;;;23.50;13.00;;;;;6.95;65.24;100317.91;5034909;28;45478;-70
2021/11/26 06:16:13;;;;;;;;;12.00;11.00;;;;;6.94;65.14;100313.59;5035237;28;45425;-69
2021/11/26 06:18:38;;;;;;;;;16.25;12.75;;;;;6.96;65.83;100309.13;5037422;28;45306;-70
2021/11/26 06:21:03;;;;;;;;;11.75;11.25;;;;;6.96;65.67;100298.69;5036404;28;45409;-69
2021/11/26 06:23:29;;;;;;;;;16.50;13.00;;;;;7.00;65.66;100309.78;5037426;28;45487;-69
2021/11/26 06:25:54;;;;;;;;;18.25;14.25;;;;;7.00;65.12;100309.78;5044583;28;45289;-69
2021/11/26 06:28:19;;;;;;;;;17.50;14.75;;;;;7.01;65.44;100311.44;5043882;28;45337;-70
2021/11/26 06:30:45;;;;;;;;;17.75;13.75;;;;;7.01;65.48;100307.06;5044411;28;45420;-69
2021/11/26 06:33:10;;;;;;;;;12.25;11.00;;;;;7.00;65.17;100294.94;5044758;28;45426;-69
2021/11/26 06:35:36;;;;;;;;;16.50;13.75;;;;;6.98;65.90;100298.56;5044319;28;45845;-70
2021/11/26 06:38:01;;;;;;;;;17.25;16.00;;;;;6.96;65.97;100293.47;5043844;28;45242;-70
2021/11/26 06:40:27;;;;;;;;;20.00;17.25;;;;;6.97;65.41;100279.47;5041207;28;45820;-69
2021/11/26 06:42:52;;;;;;;;;20.75;17.00;;;;;6.99;65.70;100281.97;5038637;28;45484;-69
2021/11/26 06:45:18;;;;;;;;;21.75;15.00;;;;;7.00;65.28;100274.03;5029039;28;48084;-68
2021/11/26 06:47:45;;;;;;;;;22.25;17.00;;;;;7.02;65.53;100268.72;5040879;28;45398;-69
2021/11/26 06:50:11;;;;;;;;;18.50;15.00;;;;;7.00;65.08;100268.81;5041623;28;45385;-70
2021/11/26 06:52:36;;;;;;;;;19.25;16.00;;;;;7.00;65.74;100258.38;5042934;28;45243;-69
2021/11/26 06:55:05;;;;;;;;;10.50;9.25;;;;;7.00;65.36;100253.16;5042915;28;47368;-71
2021/11/26 06:57:30;;;;;;;;;18.50;16.75;;;;;7.01;65.72;100260.03;5042934;28;45281;-70
2021/11/26 06:59:56;;;;;;;;;18.00;16.00;;;;;7.02;65.10;100250.41;5030434;28;45440;-70
2021/11/26 07:02:21;;;;;;;;;21.75;16.75;;;;;7.05;65.66;100245.00;5041777;28;45477;-70
2021/11/26 07:04:48;;;;;;;;;17.25;14.50;;;;;7.10;65.49;100233.31;5043571;28;45259;-69
2021/11/26 07:07:13;;;;;;;;;22.25;16.75;;;;;7.18;65.40;100234.56;5039209;28;45357;-69
2021/11/26 07:09:38;;;;;;;;;20.00;15.50;;;;;7.25;65.51;100236.66;5042742;28;45365;-68
2021/11/26 07:12:09;;;;;;;;;16.50;13.00;;;;;7.28;65.23;100227.78;5043886;28;45465;-70
2021/11/26 07:14:36;;;;;;;;;17.00;15.25;;;;;7.29;65.29;100223.38;5042446;28;46108;-69
2021/11/26 07:17:01;;;;;;;;;19.25;14.25;;;;;7.26;65.00;100225.28;5042894;28;45356;-69
2021/11/26 07:19:27;;;;;;;;;16.25;12.25;;;;;7.27;64.97;100226.94;5041227;28;45875;-69
2021/11/26 07:21:52;;;;;;;;;17.75;12.00;;;;;7.29;64.71;100219.00;5037830;28;45417;-69
2021/11/26 07:24:17;;;;;;;;;18.50;15.75;;;;;7.30;64.39;100215.44;5038509;28;45579;-68
2021/11/26 07:26:43;;;;;;;;;28.00;18.50;;;;;7.38;63.87;100209.69;5038044;28;45481;-68
2021/11/26 07:29:08;;;;;;;;;17.75;16.00;;;;;7.44;64.66;100197.03;5038531;28;45336;-71
2021/11/26 07:31:33;;;;;;;;;18.25;14.25;;;;;7.49;64.48;100190.66;5038454;28;45354;-70
2021/11/26 07:33:59;;;;;;;;;18.00;14.00;;;;;7.50;63.65;100184.47;5037224;28;46943;-70
2021/11/26 07:36:24;;;;;;;;;17.25;15.00;;;;;7.54;63.87;100191.19;5040869;28;45571;-68
2021/11/26 07:38:49;;;;;;;;;16.67;13.00;;;;;7.57;63.78;100185.72;5037737;28;45530;-69
2021/11/26 07:41:15;;;;;;;;;18.50;11.50;;;;;7.58;63.74;100184.78;5038469;28;45383;-71
2021/11/26 07:43:40;;;;;;;;;12.33;11.33;;;;;7.56;63.26;100181.44;5040283;28;45986;-71
2021/11/26 07:46:06;;;;;;;;;12.00;11.00;;;;;7.42;63.50;100164.94;5039052;28;45270;-72
2021/11/26 07:48:31;;;;;;;;;13.33;12.00;;;;;7.46;63.82;100170.81;5039497;28;45460;-70
2021/11/26 07:50:57;;;;;;;;;5.00;4.33;;;;;7.42;63.34;100169.31;5040273;28;45467;-69
2021/11/26 07:53:22;;;;;;;;;8.67;8.67;;;;;7.42;63.93;100169.31;5040151;28;45605;-69
2021/11/26 07:55:49;;;;;;;;;15.33;12.33;;;;;7.39;63.80;100162.53;5040425;28;45439;-69
2021/11/26 07:58:18;;;;;;;;;11.67;11.00;;;;;7.40;63.24;100160.78;5040638;28;45286;-69
2021/11/26 08:00:44;;;;;;;;;11.75;9.25;;;;;7.36;62.92;100160.16;5021259;28;45412;-69
2021/11/26 08:03:09;;;;;;;;;12.00;12.00;;;;;7.39;63.31;100162.53;5035328;28;45373;-68
2021/11/26 08:05:34;;;;;;;;;18.25;9.75;;;;;7.40;62.98;100164.22;5037263;28;45355;-69
2021/11/26 08:08:01;;;;;;;;;17.00;13.00;;;;;7.37;62.56;100160.97;5038315;28;45294;-69
2021/11/26 08:10:27;;;;;;;;;13.50;11.50;;;;;7.33;62.65;100157.75;5037812;28;45476;-70
2021/11/26 08:12:52;;;;;;;;;17.25;11.75;;;;;7.28;63.30;100146.78;5036820;28;45357;-69
2021/11/26 08:15:19;;;;;;;;;15.00;12.00;;;;;7.25;63.67;100139.16;5038730;28;45486;-71
2021/11/26 08:17:45;;;;;;;;;12.50;9.50;;;;;7.24;62.88;100132.28;5037552;28;45345;-70
2021/11/26 08:20:11;;;;;;;;;11.00;7.50;;;;;7.23;62.74;100122.78;5037281;28;45405;-70
2021/11/26 08:22:37;;;;;;;;;10.75;9.75;;;;;7.28;62.40;100115.44;5037596;28;46019;-69
2021/11/26 08:25:04;;;;;;;;;11.25;10.25;;;;;7.28;62.88;100112.84;5037187;28;45825;-71
2021/11/26 08:27:30;;;;;;;;;15.25;13.00;;;;;7.32;63.53;100103.81;5037492;28;45748;-70
2021/11/26 08:29:55;;;;;;;;;21.00;12.25;;;;;7.46;62.81;100115.06;5037271;28;45476;-69
2021/11/26 08:32:21;;;;;;;;;18.25;13.25;;;;;7.58;62.82;100101.16;5037920;28;46054;-69
2021/11/26 08:34:47;;;;;;;;;17.75;14.00;;;;;7.66;62.39;100104.03;5035894;28;45452;-69
2021/11/26 08:37:12;;;;;;;;;19.50;16.00;;;;;7.73;61.60;100102.66;5036264;28;45338;-70
2021/11/26 08:39:37;;;;;;;;;17.50;14.50;;;;;7.73;62.05;100105.28;5038958;28;45424;-70
2021/11/26 08:42:03;;;;;;;;;20.00;15.50;;;;;7.74;62.59;100109.53;5037936;28;45494;-70
2021/11/26 08:44:29;;;;;;;;;17.00;13.00;;;;;7.76;62.31;100107.66;5040314;28;45237;-69
2021/11/26 08:46:54;;;;;;;;;20.00;15.50;;;;;7.78;62.09;100101.47;5040332;28;45457;-68
2021/11/26 08:49:20;;;;;;;;;23.25;16.25;;;;;7.80;61.95;100094.34;5036172;28;45323;-70
2021/11/26 08:51:47;;;;;;;;;18.00;14.50;;;;;7.83;62.04;100094.16;5037250;28;45926;-68
2021/11/26 08:54:12;;;;;;;;;13.25;12.00;;;;;7.84;62.08;100090.59;5037105;28;45538;-69
2021/11/26 08:56:38;;;;;;;;;14.00;13.00;;;;;7.87;62.10;100085.13;5037262;28;45463;-68
2021/11/26 08:59:05;;;;;;;;;9.33;9.33;;;;;7.85;61.67;100081.78;5037202;28;45491;-71
2021/11/26 09:01:32;;;;;;;;;12.00;10.33;;;;;7.88;61.41;100078.94;5036903;28;46931;-69
2021/11/26 09:03:57;;;;;;;;;12.33;11.33;;;;;7.87;61.58;100075.47;5035306;28;45391;-68
2021/11/26 09:06:24;;;;;;;;;13.00;13.00;;;;;7.92;60.82;100083.00;5037296;28;45369;-69
2021/11/26 09:08:49;;;;;;;;;18.00;15.33;;;;;7.96;60.82;100073.97;5037274;28;45485;-69
2021/11/26 09:11:16;;;;;;;;;14.33;12.67;;;;;7.94;61.19;100070.66;5036831;28;46242;-68
2021/11/26 09:13:42;;;;;;;;;12.00;8.00;;;;;7.89;60.50;100057.91;5037356;28;45405;-69
2021/11/26 09:16:08;;;;;;;;;13.67;11.00;;;;;7.89;61.19;100060.53;5036485;28;45273;-69
2021/11/26 09:18:34;;;;;;;;;11.00;9.00;;;;;7.89;60.03;100054.47;5036655;28;45508;-69
2021/11/26 09:20:59;;;;;;;;;10.33;6.00;;;;;7.85;59.65;100053.00;5036632;28;45463;-69
2021/11/26 09:23:25;;;;;;;;;12.00;10.33;;;;;7.81;60.95;100055.03;5037213;28;45338;-70
2021/11/26 09:25:51;;;;;;;;;9.00;7.33;;;;;7.81;60.87;100035.88;5038626;28;45480;-68
2021/11/26 09:28:17;;;;;;;;;9.67;7.67;;;;;7.81;60.85;100031.50;5035990;28;45496;-69
2021/11/26 09:30:43;;;;;;;;;10.00;8.00;;;;;7.83;59.84;100026.97;5039039;28;46377;-69
2021/11/26 09:33:09;;;;;;;;;6.33;4.00;;;;;7.82;60.42;100014.03;5046193;28;45310;-69
2021/11/26 09:35:35;;;;;;;;;10.00;5.33;;;;;7.79;60.33;100009.84;5042360;28;45384;-69
2021/11/26 09:38:03;;;;;;;;;13.33;8.00;;;;;7.76;60.32;100010.91;5037277;28;45526;-69
2021/11/26 09:40:31;;;;;;;;;12.33;7.33;;;;;7.75;61.13;100004.00;5036805;28;46727;-69
2021/11/26 09:42:56;;;;;;;;;10.67;8.00;;;;;7.80;60.37;100000.22;5038241;28;45380;-69
2021/11/26 09:45:23;;;;;;;;;13.00;12.00;;;;;7.91;60.56;99984.56;5038731;28;45547;-68
2021/11/26 09:47:52;;;;;;;;;14.33;7.33;;;;;8.00;60.87;99993.50;5038756;28;45419;-69
2021/11/26 09:50:21;;;;;;;;;11.33;8.33;;;;;8.09;59.33;99985.81;5036465;28;45512;-71
2021/11/26 09:52:46;;;;;;;;;9.33;4.67;;;;;8.15;59.87;99981.91;5036457;28;45556;-69
2021/11/26 09:55:15;;;;;;;;;12.00;8.00;;;;;8.19;58.27;99985.13;5035417;28;45464;-68
2021/11/26 09:57:40;;;;;;;;;9.00;7.67;;;;;8.29;57.66;99983.47;5036538;28;45505;-68
2021/11/26 10:00:09;;;;;;;;;8.33;7.67;;;;;8.38;58.49;99967.06;5035321;28;46028;-69
2021/11/26 10:02:34;;;;;;;;;8.67;6.33;;;;;8.47;58.31;99956.84;5037054;28;45447;-69
2021/11/26 10:05:06;;;;;;;;;16.00;8.33;;;;;8.56;57.63;99951.75;5034899;28;45364;-69
2021/11/26 10:07:46;;;;;;;;;10.33;8.33;;;;;8.68;55.82;99944.72;5045830;28;45631;-69
2021/11/26 10:10:18;;;;;;;;;8.00;4.00;;;;;8.71;56.81;99949.69;5033116;28;47413;-70
2021/11/26 10:12:44;;;;;;;;;6.00;6.00;;;;;8.68;56.74;99942.09;5036662;28;45493;-68
2021/11/26 10:15:09;;;;;;;;;5.33;2.67;;;;;8.72;55.70;99930.41;5044317;28;45385;-69
2021/11/26 10:17:35;;;;;;;;;9.33;7.00;;;;;8.72;54.92;99930.41;5044818;28;45359;-68
2021/11/26 10:20:09;;;;;;;;;8.33;8.33;;;;;8.77;55.46;99931.81;5036276;28;46235;-68
2021/11/26 10:22:37;;;;;;;;;7.00;4.67;;;;;8.73;54.84;99926.00;5036181;28;45325;-68
2021/11/26 10:25:06;;;;;;;;;5.33;5.33;;;;;8.65;55.90;99908.28;5036873;28;45465;-69
2021/11/26 10:27:36;;;;;;;;;9.00;8.00;;;;;8.59;55.60;99893.91;5038500;28;45345;-68
2021/11/26 10:30:17;;;;;;;;;14.00;12.33;;;;;8.58;55.74;99875.69;5038817;28;46274;-68
2021/11/26 10:32:59;;;;;;;;;15.00;13.00;;;;;8.55;56.54;99866.31;5035531;28;45543;-68
2021/11/26 10:35:36;;;;;;;;;10.00;7.33;;;;;8.52;56.32;99860.47;5035862;28;45427;-69
2021/11/26 10:38:23;;;;;;;;;8.00;6.33;;;;;8.53;56.49;99854.28;5036543;28;45543;-67
2021/11/26 10:40:52;;;;;;;;;5.67;5.67;;;;;8.50;56.13;99836.22;5022734;28;45332;-69
2021/11/26 10:43:26;;;;;;;;;10.67;7.67;;;;;8.54;55.79;99835.00;5039752;28;45290;-70
2021/11/26 10:56:48;;;;;;;;;9.33;5.33;;;;;8.69;55.37;99812.84;5036043;28;45448;-70
2021/11/26 10:59:09;;;;;;;;;4.00;3.00;;;;;8.59;53.29;99799.66;5038398;28;45432;-67
2021/11/26 11:01:46;;;;;;;;;6.67;4.67;;;;;8.53;54.69;99804.56;5035158;28;46904;-68
2021/11/26 11:04:16;;;;;;;;;0.00;0.00;;;;;8.49;54.11;99797.91;5031496;28;45241;-69
2021/11/26 11:06:43;;;;;;;;;3.33;3.00;;;;;8.48;54.88;99793.63;5022982;28;45722;-70
2021/11/26 11:09:11;;;;;;;;;6.00;6.00;;;;;8.52;54.74;99780.19;5036519;28;45381;-69
2021/11/26 11:11:47;;;;;;;;;5.00;4.00;;;;;8.56;54.81;99767.66;5037088;28;46829;-68
2021/11/26 11:14:15;;;;;;;;;11.00;6.33;;;;;8.64;54.61;99764.41;5038461;28;45540;-73
2021/11/26 11:16:48;;;;;;;;;6.00;4.67;;;;;8.69;54.37;99763.09;5049963;28;45535;-70
2021/11/26 11:19:14;;;;;;;;;7.67;7.00;;;;;8.72;54.46;99757.59;5036604;28;45452;-68
2021/11/26 11:21:41;;;;;;;;;5.67;4.00;;;;;8.69;54.82;99742.16;5039756;28;45499;-69
2021/11/26 11:24:06;;;;;;;;;4.00;2.67;;;;;8.65;54.78;99730.25;5039758;28;45523;-69
2021/11/26 11:26:32;;;;;;;;;10.00;6.00;;;;;8.66;55.13;99716.19;5038804;28;45258;-68
2021/11/26 11:28:57;;;;;;;;;5.67;2.67;;;;;8.69;54.85;99705.50;5038834;28;45407;-69
2021/11/26 11:31:23;;;;;;;;;5.00;3.00;;;;;8.70;54.65;99701.91;5038199;28;46074;-69
2021/11/26 11:33:51;;;;;;;;;5.33;3.00;;;;;8.69;55.25;99684.56;5038060;28;45292;-68
2021/11/26 11:36:17;;;;;;;;;2.67;2.67;;;;;8.70;54.99;99670.47;5039938;28;45431;-71